sensor_id;sensor_type;location;lat;lon;timestamp;P1;durP1;ratioP1;P2;durP2;ratioP2
52188;SDS011;38162;45.926;13.608;2024-03-07T00:00:09;17.63;;;10.10;;
52188;SDS011;38162;45.926;13.608;2024-03-07T00:02:45;13.75;;;10.35;;
52188;SDS011;38162;45.926;13.608;2024-03-07T00:05:13;13.82;;;10.10;;
52188;SDS011;38162;45.926;13.608;2024-03-07T00:07:42;14.18;;;9.50;;
52188;SDS011;38162;45.926;13.608;2024-03-07T00:10:09;17.92;;;10.05;;
52188;SDS011;38162;45.926;13.608;2024-03-07T00:12:36;14.23;;;9.98;;
52188;SDS011;38162;45.926;13.608;2024-03-07T00:15:03;15.73;;;10.55;;
52188;SDS011;38162;45.926;13.608;2024-03-07T00:17:30;18.08;;;10.55;;
52188;SDS011;38162;45.926;13.608;2024-03-07T00:19:56;14.48;;;10.20;;
52188;SDS011;38162;45.926;13.608;2024-03-07T00:22:22;18.42;;;11.02;;
52188;SDS011;38162;45.926;13.608;2024-03-07T00:24:49;16.75;;;9.75;;
52188;SDS011;38162;45.926;13.608;2024-03-07T00:27:15;13.52;;;10.30;;
52188;SDS011;38162;45.926;13.608;2024-03-07T00:29:41;26.02;;;11.57;;
52188;SDS011;38162;45.926;13.608;2024-03-07T00:32:07;17.60;;;10.30;;
52188;SDS011;38162;45.926;13.608;2024-03-07T00:34:33;14.57;;;9.98;;
52188;SDS011;38162;45.926;13.608;2024-03-07T00:36:59;15.07;;;10.90;;
52188;SDS011;38162;45.926;13.608;2024-03-07T00:39:25;14.55;;;10.85;;
52188;SDS011;38162;45.926;13.608;2024-03-07T00:41:51;14.80;;;10.17;;
52188;SDS011;38162;45.926;13.608;2024-03-07T00:44:17;21.23;;;10.57;;
52188;SDS011;38162;45.926;13.608;2024-03-07T00:46:42;14.77;;;9.88;;
52188;SDS011;38162;45.926;13.608;2024-03-07T00:49:08;14.00;;;9.45;;
52188;SDS011;38162;45.926;13.608;2024-03-07T00:51:34;11.68;;;9.05;;
52188;SDS011;38162;45.926;13.608;2024-03-07T00:54:00;13.05;;;9.05;;
52188;SDS011;38162;45.926;13.608;2024-03-07T00:56:26;12.50;;;9.02;;
52188;SDS011;38162;45.926;13.608;2024-03-07T00:58:52;12.70;;;9.60;;
52188;SDS011;38162;45.926;13.608;2024-03-07T01:01:17;12.73;;;8.75;;
52188;SDS011;38162;45.926;13.608;2024-03-07T01:03:46;14.35;;;8.82;;
52188;SDS011;38162;45.926;13.608;2024-03-07T01:06:12;16.25;;;8.88;;
52188;SDS011;38162;45.926;13.608;2024-03-07T01:08:38;14.05;;;8.80;;
52188;SDS011;38162;45.926;13.608;2024-03-07T01:11:04;16.07;;;9.77;;
52188;SDS011;38162;45.926;13.608;2024-03-07T01:13:40;12.90;;;9.05;;
52188;SDS011;38162;45.926;13.608;2024-03-07T01:16:06;13.33;;;8.50;;
52188;SDS011;38162;45.926;13.608;2024-03-07T01:18:32;13.57;;;8.55;;
52188;SDS011;38162;45.926;13.608;2024-03-07T01:21:01;10.88;;;7.03;;
52188;SDS011;38162;45.926;13.608;2024-03-07T01:23:27;13.68;;;7.15;;
52188;SDS011;38162;45.926;13.608;2024-03-07T01:25:55;9.75;;;6.95;;
52188;SDS011;38162;45.926;13.608;2024-03-07T01:28:24;11.77;;;7.80;;
52188;SDS011;38162;45.926;13.608;2024-03-07T01:30:51;15.88;;;8.00;;
52188;SDS011;38162;45.926;13.608;2024-03-07T01:33:18;11.80;;;7.13;;
52188;SDS011;38162;45.926;13.608;2024-03-07T01:35:44;11.52;;;7.97;;
52188;SDS011;38162;45.926;13.608;2024-03-07T01:38:10;12.05;;;7.50;;
52188;SDS011;38162;45.926;13.608;2024-03-07T01:40:39;15.27;;;7.38;;
52188;SDS011;38162;45.926;13.608;2024-03-07T01:43:05;9.07;;;7.15;;
52188;SDS011;38162;45.926;13.608;2024-03-07T01:45:31;11.00;;;7.55;;
52188;SDS011;38162;45.926;13.608;2024-03-07T01:47:57;8.60;;;7.40;;
52188;SDS011;38162;45.926;13.608;2024-03-07T01:50:23;11.10;;;8.40;;
52188;SDS011;38162;45.926;13.608;2024-03-07T01:52:49;13.43;;;7.97;;
52188;SDS011;38162;45.926;13.608;2024-03-07T01:55:20;13.70;;;7.38;;
52188;SDS011;38162;45.926;13.608;2024-03-07T01:57:48;13.75;;;8.38;;
52188;SDS011;38162;45.926;13.608;2024-03-07T02:00:14;15.63;;;8.00;;
52188;SDS011;38162;45.926;13.608;2024-03-07T02:02:40;9.27;;;7.30;;
52188;SDS011;38162;45.926;13.608;2024-03-07T02:05:07;11.13;;;7.75;;
52188;SDS011;38162;45.926;13.608;2024-03-07T02:07:33;13.27;;;7.47;;
52188;SDS011;38162;45.926;13.608;2024-03-07T02:10:02;12.23;;;8.05;;
52188;SDS011;38162;45.926;13.608;2024-03-07T02:12:29;13.65;;;8.25;;
52188;SDS011;38162;45.926;13.608;2024-03-07T02:14:58;12.02;;;7.72;;
52188;SDS011;38162;45.926;13.608;2024-03-07T02:17:24;13.05;;;8.75;;
52188;SDS011;38162;45.926;13.608;2024-03-07T02:19:53;11.52;;;8.57;;
52188;SDS011;38162;45.926;13.608;2024-03-07T02:22:18;12.32;;;8.00;;
52188;SDS011;38162;45.926;13.608;2024-03-07T02:24:45;11.00;;;8.30;;
52188;SDS011;38162;45.926;13.608;2024-03-07T02:27:11;12.30;;;8.23;;
52188;SDS011;38162;45.926;13.608;2024-03-07T02:29:39;10.93;;;8.13;;
52188;SDS011;38162;45.926;13.608;2024-03-07T02:32:06;12.67;;;8.70;;
52188;SDS011;38162;45.926;13.608;2024-03-07T02:34:31;11.68;;;8.07;;
52188;SDS011;38162;45.926;13.608;2024-03-07T02:36:57;13.38;;;8.50;;
52188;SDS011;38162;45.926;13.608;2024-03-07T02:39:23;13.33;;;8.03;;
52188;SDS011;38162;45.926;13.608;2024-03-07T02:41:51;12.75;;;8.25;;
52188;SDS011;38162;45.926;13.608;2024-03-07T02:44:17;13.35;;;8.63;;
52188;SDS011;38162;45.926;13.608;2024-03-07T02:46:43;13.40;;;8.63;;
52188;SDS011;38162;45.926;13.608;2024-03-07T02:49:09;12.17;;;8.57;;
52188;SDS011;38162;45.926;13.608;2024-03-07T02:51:36;15.57;;;9.27;;
52188;SDS011;38162;45.926;13.608;2024-03-07T02:54:01;13.23;;;9.48;;
52188;SDS011;38162;45.926;13.608;2024-03-07T02:56:30;14.17;;;9.07;;
52188;SDS011;38162;45.926;13.608;2024-03-07T02:58:56;10.90;;;8.47;;
52188;SDS011;38162;45.926;13.608;2024-03-07T03:01:22;10.23;;;8.17;;
52188;SDS011;38162;45.926;13.608;2024-03-07T03:03:47;11.90;;;8.97;;
52188;SDS011;38162;45.926;13.608;2024-03-07T03:06:13;14.47;;;9.17;;
52188;SDS011;38162;45.926;13.608;2024-03-07T03:08:39;11.57;;;8.93;;
52188;SDS011;38162;45.926;13.608;2024-03-07T03:11:05;11.27;;;8.75;;
52188;SDS011;38162;45.926;13.608;2024-03-07T03:13:34;14.63;;;8.27;;
52188;SDS011;38162;45.926;13.608;2024-03-07T03:16:03;10.43;;;8.55;;
52188;SDS011;38162;45.926;13.608;2024-03-07T03:18:32;16.58;;;8.68;;
52188;SDS011;38162;45.926;13.608;2024-03-07T03:20:59;10.87;;;7.70;;
52188;SDS011;38162;45.926;13.608;2024-03-07T03:23:25;12.60;;;7.95;;
52188;SDS011;38162;45.926;13.608;2024-03-07T03:25:50;15.18;;;8.43;;
52188;SDS011;38162;45.926;13.608;2024-03-07T03:28:16;11.03;;;7.90;;
52188;SDS011;38162;45.926;13.608;2024-03-07T03:30:43;13.38;;;8.10;;
52188;SDS011;38162;45.926;13.608;2024-03-07T03:33:09;11.07;;;8.23;;
52188;SDS011;38162;45.926;13.608;2024-03-07T03:35:39;10.77;;;7.23;;
52188;SDS011;38162;45.926;13.608;2024-03-07T03:38:08;9.90;;;7.47;;
52188;SDS011;38162;45.926;13.608;2024-03-07T03:40:34;14.60;;;7.80;;
52188;SDS011;38162;45.926;13.608;2024-03-07T03:43:00;11.43;;;8.50;;
52188;SDS011;38162;45.926;13.608;2024-03-07T03:45:26;13.63;;;8.17;;
52188;SDS011;38162;45.926;13.608;2024-03-07T03:47:52;12.40;;;7.73;;
52188;SDS011;38162;45.926;13.608;2024-03-07T03:50:18;14.73;;;8.13;;
52188;SDS011;38162;45.926;13.608;2024-03-07T03:52:44;15.07;;;9.03;;
52188;SDS011;38162;45.926;13.608;2024-03-07T03:55:10;14.40;;;9.20;;
52188;SDS011;38162;45.926;13.608;2024-03-07T03:57:37;13.80;;;9.20;;
52188;SDS011;38162;45.926;13.608;2024-03-07T04:00:05;12.67;;;8.47;;
52188;SDS011;38162;45.926;13.608;2024-03-07T04:02:44;9.97;;;7.33;;
52188;SDS011;38162;45.926;13.608;2024-03-07T04:05:13;10.67;;;7.87;;
52188;SDS011;38162;45.926;13.608;2024-03-07T04:07:39;13.60;;;7.93;;
52188;SDS011;38162;45.926;13.608;2024-03-07T04:10:09;11.97;;;8.27;;
52188;SDS011;38162;45.926;13.608;2024-03-07T04:12:37;15.20;;;9.27;;
52188;SDS011;38162;45.926;13.608;2024-03-07T04:15:08;18.53;;;14.47;;
52188;SDS011;38162;45.926;13.608;2024-03-07T04:17:39;23.03;;;19.23;;
52188;SDS011;38162;45.926;13.608;2024-03-07T04:20:05;18.20;;;16.30;;
52188;SDS011;38162;45.926;13.608;2024-03-07T04:22:32;18.80;;;16.10;;
52188;SDS011;38162;45.926;13.608;2024-03-07T04:24:59;14.93;;;11.93;;
52188;SDS011;38162;45.926;13.608;2024-03-07T04:27:25;11.30;;;10.13;;
52188;SDS011;38162;45.926;13.608;2024-03-07T04:29:51;13.70;;;9.93;;
52188;SDS011;38162;45.926;13.608;2024-03-07T04:32:17;11.03;;;8.43;;
52188;SDS011;38162;45.926;13.608;2024-03-07T04:34:43;13.93;;;8.90;;
52188;SDS011;38162;45.926;13.608;2024-03-07T04:37:09;15.27;;;8.03;;
52188;SDS011;38162;45.926;13.608;2024-03-07T04:39:35;11.10;;;9.03;;
52188;SDS011;38162;45.926;13.608;2024-03-07T04:42:01;9.97;;;7.57;;
52188;SDS011;38162;45.926;13.608;2024-03-07T04:44:30;14.03;;;8.57;;
52188;SDS011;38162;45.926;13.608;2024-03-07T04:46:57;11.60;;;8.20;;
52188;SDS011;38162;45.926;13.608;2024-03-07T04:49:25;13.03;;;9.47;;
52188;SDS011;38162;45.926;13.608;2024-03-07T04:51:52;13.73;;;8.50;;
52188;SDS011;38162;45.926;13.608;2024-03-07T04:54:19;14.10;;;8.10;;
52188;SDS011;38162;45.926;13.608;2024-03-07T04:56:45;12.00;;;7.90;;
52188;SDS011;38162;45.926;13.608;2024-03-07T04:59:12;11.30;;;7.73;;
52188;SDS011;38162;45.926;13.608;2024-03-07T05:01:38;13.97;;;9.37;;
52188;SDS011;38162;45.926;13.608;2024-03-07T05:04:05;14.63;;;10.53;;
52188;SDS011;38162;45.926;13.608;2024-03-07T05:06:31;14.27;;;10.30;;
52188;SDS011;38162;45.926;13.608;2024-03-07T05:09:01;20.47;;;10.70;;
52188;SDS011;38162;45.926;13.608;2024-03-07T05:11:32;14.20;;;10.27;;
52188;SDS011;38162;45.926;13.608;2024-03-07T05:13:59;14.70;;;10.93;;
52188;SDS011;38162;45.926;13.608;2024-03-07T05:16:28;17.70;;;10.50;;
52188;SDS011;38162;45.926;13.608;2024-03-07T05:18:55;19.10;;;10.53;;
52188;SDS011;38162;45.926;13.608;2024-03-07T05:21:24;19.83;;;9.77;;
52188;SDS011;38162;45.926;13.608;2024-03-07T05:24:06;14.60;;;9.93;;
52188;SDS011;38162;45.926;13.608;2024-03-07T05:26:33;13.07;;;9.47;;
52188;SDS011;38162;45.926;13.608;2024-03-07T05:29:05;15.37;;;9.83;;
52188;SDS011;38162;45.926;13.608;2024-03-07T05:31:35;12.80;;;9.60;;
52188;SDS011;38162;45.926;13.608;2024-03-07T05:34:10;16.73;;;8.80;;
52188;SDS011;38162;45.926;13.608;2024-03-07T05:36:37;14.27;;;9.40;;
52188;SDS011;38162;45.926;13.608;2024-03-07T05:39:11;15.47;;;9.83;;
52188;SDS011;38162;45.926;13.608;2024-03-07T05:41:38;14.10;;;9.40;;
52188;SDS011;38162;45.926;13.608;2024-03-07T05:44:04;15.07;;;9.87;;
52188;SDS011;38162;45.926;13.608;2024-03-07T05:46:34;14.03;;;9.63;;
52188;SDS011;38162;45.926;13.608;2024-03-07T05:51:35;13.50;;;9.30;;
52188;SDS011;38162;45.926;13.608;2024-03-07T05:54:01;12.87;;;8.97;;
52188;SDS011;38162;45.926;13.608;2024-03-07T05:56:31;13.23;;;9.20;;
52188;SDS011;38162;45.926;13.608;2024-03-07T05:59:00;11.63;;;9.37;;
52188;SDS011;38162;45.926;13.608;2024-03-07T06:01:30;13.77;;;9.60;;
52188;SDS011;38162;45.926;13.608;2024-03-07T06:03:58;13.63;;;9.37;;
52188;SDS011;38162;45.926;13.608;2024-03-07T06:06:24;11.87;;;8.73;;
52188;SDS011;38162;45.926;13.608;2024-03-07T06:08:50;13.90;;;8.60;;
52188;SDS011;38162;45.926;13.608;2024-03-07T06:11:16;13.70;;;8.60;;
52188;SDS011;38162;45.926;13.608;2024-03-07T06:13:46;13.30;;;8.80;;
52188;SDS011;38162;45.926;13.608;2024-03-07T06:16:12;16.23;;;9.67;;
52188;SDS011;38162;45.926;13.608;2024-03-07T06:18:39;11.70;;;8.43;;
52188;SDS011;38162;45.926;13.608;2024-03-07T06:21:05;15.83;;;8.73;;
52188;SDS011;38162;45.926;13.608;2024-03-07T06:23:31;15.97;;;8.60;;
52188;SDS011;38162;45.926;13.608;2024-03-07T06:25:57;13.87;;;8.17;;
52188;SDS011;38162;45.926;13.608;2024-03-07T06:28:24;14.33;;;8.07;;
52188;SDS011;38162;45.926;13.608;2024-03-07T06:30:50;13.17;;;8.50;;
52188;SDS011;38162;45.926;13.608;2024-03-07T06:33:16;13.00;;;8.47;;
52188;SDS011;38162;45.926;13.608;2024-03-07T06:35:41;11.63;;;8.57;;
52188;SDS011;38162;45.926;13.608;2024-03-07T06:38:08;12.70;;;8.43;;
52188;SDS011;38162;45.926;13.608;2024-03-07T06:40:35;17.67;;;8.20;;
52188;SDS011;38162;45.926;13.608;2024-03-07T06:43:02;13.23;;;8.20;;
52188;SDS011;38162;45.926;13.608;2024-03-07T06:45:37;10.80;;;7.93;;
52188;SDS011;38162;45.926;13.608;2024-03-07T06:48:07;15.37;;;9.13;;
52188;SDS011;38162;45.926;13.608;2024-03-07T06:50:33;14.27;;;8.93;;
52188;SDS011;38162;45.926;13.608;2024-03-07T06:53:00;14.97;;;9.00;;
52188;SDS011;38162;45.926;13.608;2024-03-07T06:55:26;16.80;;;9.07;;
52188;SDS011;38162;45.926;13.608;2024-03-07T06:57:52;13.90;;;9.47;;
52188;SDS011;38162;45.926;13.608;2024-03-07T07:00:19;16.23;;;9.30;;
52188;SDS011;38162;45.926;13.608;2024-03-07T07:02:45;28.70;;;9.73;;
52188;SDS011;38162;45.926;13.608;2024-03-07T07:05:11;17.97;;;8.97;;
52188;SDS011;38162;45.926;13.608;2024-03-07T07:07:40;12.57;;;9.00;;
52188;SDS011;38162;45.926;13.608;2024-03-07T07:10:09;12.40;;;8.77;;
52188;SDS011;38162;45.926;13.608;2024-03-07T07:12:41;16.58;;;8.45;;
52188;SDS011;38162;45.926;13.608;2024-03-07T07:15:10;22.80;;;9.67;;
52188;SDS011;38162;45.926;13.608;2024-03-07T07:17:37;15.53;;;9.63;;
52188;SDS011;38162;45.926;13.608;2024-03-07T07:20:04;16.17;;;9.43;;
52188;SDS011;38162;45.926;13.608;2024-03-07T07:22:38;15.10;;;8.93;;
52188;SDS011;38162;45.926;13.608;2024-03-07T07:25:04;17.02;;;9.43;;
52188;SDS011;38162;45.926;13.608;2024-03-07T07:27:33;13.83;;;9.47;;
52188;SDS011;38162;45.926;13.608;2024-03-07T07:29:59;17.48;;;9.65;;
52188;SDS011;38162;45.926;13.608;2024-03-07T07:32:25;15.17;;;9.33;;
52188;SDS011;38162;45.926;13.608;2024-03-07T07:34:52;15.90;;;9.37;;
52188;SDS011;38162;45.926;13.608;2024-03-07T07:37:18;15.10;;;8.97;;
52188;SDS011;38162;45.926;13.608;2024-03-07T07:39:44;21.77;;;10.10;;
52188;SDS011;38162;45.926;13.608;2024-03-07T07:42:11;17.63;;;9.60;;
52188;SDS011;38162;45.926;13.608;2024-03-07T07:44:36;17.87;;;10.77;;
52188;SDS011;38162;45.926;13.608;2024-03-07T07:47:02;17.03;;;10.40;;
52188;SDS011;38162;45.926;13.608;2024-03-07T07:49:30;15.43;;;10.38;;
52188;SDS011;38162;45.926;13.608;2024-03-07T07:51:56;17.80;;;11.98;;
52188;SDS011;38162;45.926;13.608;2024-03-07T07:54:22;20.98;;;11.98;;
52188;SDS011;38162;45.926;13.608;2024-03-07T07:56:49;16.70;;;11.40;;
52188;SDS011;38162;45.926;13.608;2024-03-07T07:59:16;20.00;;;11.77;;
52188;SDS011;38162;45.926;13.608;2024-03-07T08:01:42;22.30;;;12.52;;
52188;SDS011;38162;45.926;13.608;2024-03-07T08:04:07;19.57;;;12.07;;
52188;SDS011;38162;45.926;13.608;2024-03-07T08:06:34;20.95;;;11.43;;
52188;SDS011;38162;45.926;13.608;2024-03-07T08:09:00;16.60;;;11.00;;
52188;SDS011;38162;45.926;13.608;2024-03-07T08:11:26;15.27;;;10.95;;
52188;SDS011;38162;45.926;13.608;2024-03-07T08:13:51;14.52;;;10.18;;
52188;SDS011;38162;45.926;13.608;2024-03-07T08:16:17;15.88;;;9.90;;
52188;SDS011;38162;45.926;13.608;2024-03-07T08:18:43;14.20;;;10.18;;
52188;SDS011;38162;45.926;13.608;2024-03-07T08:21:09;14.93;;;10.52;;
52188;SDS011;38162;45.926;13.608;2024-03-07T08:23:38;16.65;;;10.98;;
52188;SDS011;38162;45.926;13.608;2024-03-07T08:26:04;17.50;;;10.05;;
52188;SDS011;38162;45.926;13.608;2024-03-07T08:28:30;17.60;;;9.98;;
52188;SDS011;38162;45.926;13.608;2024-03-07T08:30:56;14.68;;;9.80;;
52188;SDS011;38162;45.926;13.608;2024-03-07T08:33:23;17.73;;;10.85;;
52188;SDS011;38162;45.926;13.608;2024-03-07T08:35:49;15.30;;;9.82;;
52188;SDS011;38162;45.926;13.608;2024-03-07T08:38:18;16.77;;;9.52;;
52188;SDS011;38162;45.926;13.608;2024-03-07T08:40:43;15.13;;;9.98;;
52188;SDS011;38162;45.926;13.608;2024-03-07T08:43:09;15.95;;;9.82;;
52188;SDS011;38162;45.926;13.608;2024-03-07T08:45:35;12.13;;;8.88;;
52188;SDS011;38162;45.926;13.608;2024-03-07T08:48:01;17.15;;;9.30;;
52188;SDS011;38162;45.926;13.608;2024-03-07T08:50:33;12.65;;;8.95;;
52188;SDS011;38162;45.926;13.608;2024-03-07T08:52:59;14.77;;;8.70;;
52188;SDS011;38162;45.926;13.608;2024-03-07T08:55:26;13.23;;;8.90;;
52188;SDS011;38162;45.926;13.608;2024-03-07T08:57:51;14.68;;;8.27;;
52188;SDS011;38162;45.926;13.608;2024-03-07T09:00:18;13.57;;;8.43;;
52188;SDS011;38162;45.926;13.608;2024-03-07T09:02:50;15.27;;;9.75;;
52188;SDS011;38162;45.926;13.608;2024-03-07T09:05:18;18.38;;;9.90;;
52188;SDS011;38162;45.926;13.608;2024-03-07T09:07:45;13.38;;;8.57;;
52188;SDS011;38162;45.926;13.608;2024-03-07T09:10:12;14.20;;;8.13;;
52188;SDS011;38162;45.926;13.608;2024-03-07T09:12:42;19.30;;;9.00;;
52188;SDS011;38162;45.926;13.608;2024-03-07T09:15:09;13.02;;;8.57;;
52188;SDS011;38162;45.926;13.608;2024-03-07T09:17:35;12.25;;;8.20;;
52188;SDS011;38162;45.926;13.608;2024-03-07T09:20:02;12.25;;;7.68;;
52188;SDS011;38162;45.926;13.608;2024-03-07T09:22:31;14.82;;;7.63;;
52188;SDS011;38162;45.926;13.608;2024-03-07T09:24:58;10.68;;;7.10;;
52188;SDS011;38162;45.926;13.608;2024-03-07T09:27:24;11.05;;;7.55;;
52188;SDS011;38162;45.926;13.608;2024-03-07T09:29:50;14.18;;;7.63;;
52188;SDS011;38162;45.926;13.608;2024-03-07T09:32:16;11.52;;;7.38;;
52188;SDS011;38162;45.926;13.608;2024-03-07T09:34:42;11.05;;;7.13;;
52188;SDS011;38162;45.926;13.608;2024-03-07T09:37:08;8.73;;;6.32;;
52188;SDS011;38162;45.926;13.608;2024-03-07T09:39:34;11.45;;;7.07;;
52188;SDS011;38162;45.926;13.608;2024-03-07T09:42:03;13.80;;;7.93;;
52188;SDS011;38162;45.926;13.608;2024-03-07T09:44:35;10.88;;;7.20;;
52188;SDS011;38162;45.926;13.608;2024-03-07T09:47:04;13.02;;;7.38;;
52188;SDS011;38162;45.926;13.608;2024-03-07T09:49:30;10.77;;;6.40;;
52188;SDS011;38162;45.926;13.608;2024-03-07T09:52:01;12.80;;;7.45;;
52188;SDS011;38162;45.926;13.608;2024-03-07T09:54:33;8.95;;;6.55;;
52188;SDS011;38162;45.926;13.608;2024-03-07T09:57:00;9.82;;;7.00;;
52188;SDS011;38162;45.926;13.608;2024-03-07T09:59:28;12.73;;;6.95;;
52188;SDS011;38162;45.926;13.608;2024-03-07T10:01:55;11.48;;;7.00;;
52188;SDS011;38162;45.926;13.608;2024-03-07T10:04:29;9.90;;;7.20;;
52188;SDS011;38162;45.926;13.608;2024-03-07T10:06:56;10.68;;;7.07;;
52188;SDS011;38162;45.926;13.608;2024-03-07T10:09:23;8.95;;;6.68;;
52188;SDS011;38162;45.926;13.608;2024-03-07T10:11:56;8.63;;;6.38;;
52188;SDS011;38162;45.926;13.608;2024-03-07T10:14:25;13.00;;;6.68;;
52188;SDS011;38162;45.926;13.608;2024-03-07T10:16:53;10.07;;;6.78;;
52188;SDS011;38162;45.926;13.608;2024-03-07T10:19:21;10.20;;;7.10;;
52188;SDS011;38162;45.926;13.608;2024-03-07T10:21:47;10.68;;;6.95;;
52188;SDS011;38162;45.926;13.608;2024-03-07T10:24:13;12.93;;;6.68;;
52188;SDS011;38162;45.926;13.608;2024-03-07T10:26:39;8.02;;;5.90;;
52188;SDS011;38162;45.926;13.608;2024-03-07T10:29:06;14.25;;;6.65;;
52188;SDS011;38162;45.926;13.608;2024-03-07T10:31:35;10.23;;;6.75;;
52188;SDS011;38162;45.926;13.608;2024-03-07T10:34:04;10.35;;;7.07;;
52188;SDS011;38162;45.926;13.608;2024-03-07T10:36:30;11.55;;;7.50;;
52188;SDS011;38162;45.926;13.608;2024-03-07T10:39:00;9.60;;;6.85;;
52188;SDS011;38162;45.926;13.608;2024-03-07T10:41:28;9.52;;;6.78;;
52188;SDS011;38162;45.926;13.608;2024-03-07T10:43:56;8.73;;;6.30;;
52188;SDS011;38162;45.926;13.608;2024-03-07T10:46:25;9.57;;;6.75;;
52188;SDS011;38162;45.926;13.608;2024-03-07T10:48:53;12.82;;;7.28;;
52188;SDS011;38162;45.926;13.608;2024-03-07T10:51:27;13.73;;;7.32;;
52188;SDS011;38162;45.926;13.608;2024-03-07T10:54:20;13.30;;;8.15;;
52188;SDS011;38162;45.926;13.608;2024-03-07T10:59:45;13.48;;;7.78;;
52188;SDS011;38162;45.926;13.608;2024-03-07T11:02:21;8.93;;;6.83;;
52188;SDS011;38162;45.926;13.608;2024-03-07T11:07:24;11.13;;;7.22;;
52188;SDS011;38162;45.926;13.608;2024-03-07T11:09:52;14.10;;;7.72;;
52188;SDS011;38162;45.926;13.608;2024-03-07T11:12:23;10.65;;;7.88;;
52188;SDS011;38162;45.926;13.608;2024-03-07T11:14:53;11.60;;;7.78;;
52188;SDS011;38162;45.926;13.608;2024-03-07T11:17:20;14.65;;;7.40;;
52188;SDS011;38162;45.926;13.608;2024-03-07T11:19:47;12.68;;;8.07;;
52188;SDS011;38162;45.926;13.608;2024-03-07T11:22:30;12.10;;;7.55;;
52188;SDS011;38162;45.926;13.608;2024-03-07T11:25:06;11.27;;;6.60;;
52188;SDS011;38162;45.926;13.608;2024-03-07T11:27:38;10.57;;;7.10;;
52188;SDS011;38162;45.926;13.608;2024-03-07T11:30:07;12.25;;;6.95;;
52188;SDS011;38162;45.926;13.608;2024-03-07T11:32:38;13.00;;;7.43;;
52188;SDS011;38162;45.926;13.608;2024-03-07T11:35:04;14.13;;;8.32;;
52188;SDS011;38162;45.926;13.608;2024-03-07T11:37:43;15.38;;;7.35;;
52188;SDS011;38162;45.926;13.608;2024-03-07T11:40:11;13.60;;;7.78;;
52188;SDS011;38162;45.926;13.608;2024-03-07T11:42:45;16.48;;;7.53;;
52188;SDS011;38162;45.926;13.608;2024-03-07T11:45:13;12.05;;;8.00;;
52188;SDS011;38162;45.926;13.608;2024-03-07T11:47:53;18.75;;;9.52;;
52188;SDS011;38162;45.926;13.608;2024-03-07T11:50:24;17.10;;;10.07;;
52188;SDS011;38162;45.926;13.608;2024-03-07T11:52:52;18.42;;;9.98;;
52188;SDS011;38162;45.926;13.608;2024-03-07T11:55:20;12.85;;;9.25;;
52188;SDS011;38162;45.926;13.608;2024-03-07T11:57:47;15.93;;;10.50;;
52188;SDS011;38162;45.926;13.608;2024-03-07T12:00:13;19.00;;;11.15;;
52188;SDS011;38162;45.926;13.608;2024-03-07T12:02:41;15.85;;;11.07;;
52188;SDS011;38162;45.926;13.608;2024-03-07T12:05:08;16.23;;;11.63;;
52188;SDS011;38162;45.926;13.608;2024-03-07T12:07:34;17.75;;;11.52;;
52188;SDS011;38162;45.926;13.608;2024-03-07T12:10:01;15.23;;;9.88;;
52188;SDS011;38162;45.926;13.608;2024-03-07T12:12:31;16.63;;;9.80;;
52188;SDS011;38162;45.926;13.608;2024-03-07T12:14:58;15.38;;;10.10;;
52188;SDS011;38162;45.926;13.608;2024-03-07T12:17:24;18.40;;;10.70;;
52188;SDS011;38162;45.926;13.608;2024-03-07T12:19:50;17.40;;;10.27;;
52188;SDS011;38162;45.926;13.608;2024-03-07T12:22:18;16.77;;;10.82;;
52188;SDS011;38162;45.926;13.608;2024-03-07T12:25:08;13.45;;;9.50;;
52188;SDS011;38162;45.926;13.608;2024-03-07T12:27:35;12.88;;;8.98;;
52188;SDS011;38162;45.926;13.608;2024-03-07T12:30:03;15.43;;;9.63;;
52188;SDS011;38162;45.926;13.608;2024-03-07T12:32:50;10.82;;;8.32;;
52188;SDS011;38162;45.926;13.608;2024-03-07T12:35:17;13.00;;;8.43;;
52188;SDS011;38162;45.926;13.608;2024-03-07T12:37:43;13.35;;;8.50;;
52188;SDS011;38162;45.926;13.608;2024-03-07T12:40:13;14.90;;;8.85;;
52188;SDS011;38162;45.926;13.608;2024-03-07T12:42:47;10.48;;;7.78;;
52188;SDS011;38162;45.926;13.608;2024-03-07T12:45:15;12.10;;;7.55;;
52188;SDS011;38162;45.926;13.608;2024-03-07T12:47:43;11.70;;;7.20;;
52188;SDS011;38162;45.926;13.608;2024-03-07T12:50:12;10.55;;;7.13;;
52188;SDS011;38162;45.926;13.608;2024-03-07T12:52:38;11.25;;;7.85;;
52188;SDS011;38162;45.926;13.608;2024-03-07T12:55:05;12.65;;;8.15;;
52188;SDS011;38162;45.926;13.608;2024-03-07T12:57:32;10.07;;;7.25;;
52188;SDS011;38162;45.926;13.608;2024-03-07T12:59:57;15.77;;;8.30;;
52188;SDS011;38162;45.926;13.608;2024-03-07T13:02:23;11.85;;;8.40;;
52188;SDS011;38162;45.926;13.608;2024-03-07T13:04:52;11.98;;;8.57;;
52188;SDS011;38162;45.926;13.608;2024-03-07T13:07:18;13.02;;;8.75;;
52188;SDS011;38162;45.926;13.608;2024-03-07T13:09:44;11.15;;;7.75;;
52188;SDS011;38162;45.926;13.608;2024-03-07T13:12:12;10.15;;;6.60;;
52188;SDS011;38162;45.926;13.608;2024-03-07T13:14:40;8.15;;;6.72;;
52188;SDS011;38162;45.926;13.608;2024-03-07T13:17:07;10.77;;;7.65;;
52188;SDS011;38162;45.926;13.608;2024-03-07T13:19:33;11.05;;;8.32;;
52188;SDS011;38162;45.926;13.608;2024-03-07T13:21:59;11.88;;;7.88;;
52188;SDS011;38162;45.926;13.608;2024-03-07T13:24:25;14.23;;;9.23;;
52188;SDS011;38162;45.926;13.608;2024-03-07T13:26:52;12.93;;;8.63;;
52188;SDS011;38162;45.926;13.608;2024-03-07T13:29:18;11.75;;;7.75;;
52188;SDS011;38162;45.926;13.608;2024-03-07T13:31:49;14.25;;;7.60;;
52188;SDS011;38162;45.926;13.608;2024-03-07T13:34:16;9.52;;;6.22;;
52188;SDS011;38162;45.926;13.608;2024-03-07T13:36:43;10.27;;;7.45;;
52188;SDS011;38162;45.926;13.608;2024-03-07T13:39:09;8.75;;;5.85;;
52188;SDS011;38162;45.926;13.608;2024-03-07T13:41:40;11.98;;;6.38;;
52188;SDS011;38162;45.926;13.608;2024-03-07T13:44:06;7.00;;;4.45;;
52188;SDS011;38162;45.926;13.608;2024-03-07T13:46:32;5.57;;;3.60;;
52188;SDS011;38162;45.926;13.608;2024-03-07T13:49:01;4.50;;;3.38;;
52188;SDS011;38162;45.926;13.608;2024-03-07T13:51:42;4.13;;;2.90;;
52188;SDS011;38162;45.926;13.608;2024-03-07T13:54:28;5.15;;;3.22;;
52188;SDS011;38162;45.926;13.608;2024-03-07T13:59:59;6.07;;;3.40;;
52188;SDS011;38162;45.926;13.608;2024-03-07T14:05:48;5.22;;;3.28;;
52188;SDS011;38162;45.926;13.608;2024-03-07T14:11:33;5.68;;;3.78;;
52188;SDS011;38162;45.926;13.608;2024-03-07T14:14:12;4.63;;;3.20;;
52188;SDS011;38162;45.926;13.608;2024-03-07T14:20:21;7.68;;;4.38;;
52188;SDS011;38162;45.926;13.608;2024-03-07T14:26:02;5.47;;;3.92;;
52188;SDS011;38162;45.926;13.608;2024-03-07T14:31:19;5.33;;;4.27;;
52188;SDS011;38162;45.926;13.608;2024-03-07T14:33:54;6.28;;;4.57;;
52188;SDS011;38162;45.926;13.608;2024-03-07T14:36:47;6.60;;;5.15;;
52188;SDS011;38162;45.926;13.608;2024-03-07T14:39:18;8.63;;;5.05;;
52188;SDS011;38162;45.926;13.608;2024-03-07T14:41:50;7.88;;;4.65;;
52188;SDS011;38162;45.926;13.608;2024-03-07T14:44:27;6.88;;;5.18;;
52188;SDS011;38162;45.926;13.608;2024-03-07T14:46:54;11.18;;;5.68;;
52188;SDS011;38162;45.926;13.608;2024-03-07T14:49:30;8.32;;;6.22;;
52188;SDS011;38162;45.926;13.608;2024-03-07T14:51:57;7.25;;;5.47;;